Time;durP1;ratioP1;P1;durP2;ratioP2;P2;SDS_P1;SDS_P2;PMS_P1;PMS_P2;Temp;Humidity;BMP_temperature;BMP_pressure;BME280_temperature;BME280_humidity;BME280_pressure;Samples;Min_cycle;Max_cycle;Signal;HPM_P1;HPM_P2
2021/12/14 00:00:57;;;;;;;19.70;8.93;;;5.50;99.90;;;;;;5014267;28;20456;-94
2021/12/14 00:03:29;;;;;;;21.90;9.13;;;5.50;99.90;;;;;;5014644;28;20963;-89
2021/12/14 00:05:56;;;;;;;17.43;8.90;;;;;;;;;;5013128;28;20476;-88
2021/12/14 00:08:25;;;;;;;21.27;9.80;;;;;;;;;;5011397;28;20452;-89
2021/12/14 00:11:10;;;;;;;21.17;10.30;;;5.70;99.90;;;;;;5013986;28;20497;-91
2021/12/14 00:13:51;;;;;;;22.87;10.83;;;5.60;99.90;;;;;;5013158;28;20487;-91
2021/12/14 00:16:19;;;;;;;26.70;10.27;;;;;;;;;;5014185;28;20453;-91
2021/12/14 00:18:46;;;;;;;27.60;8.97;;;;;;;;;;5010168;28;20469;-91
2021/12/14 00:21:19;;;;;;;15.67;8.23;;;5.50;99.90;;;;;;5010298;28;20464;-88
2021/12/14 00:26:35;;;;;;;19.30;9.80;;;5.30;99.90;;;;;;5017568;28;20933;-93
2021/12/14 00:29:02;;;;;;;19.07;8.57;;;5.20;99.90;;;;;;5018650;28;20986;-88
2021/12/14 00:31:29;;;;;;;14.77;8.10;;;;;;;;;;5018771;28;20459;-93
2021/12/14 00:34:00;;;;;;;17.53;8.53;;;5.40;99.90;;;;;;5017834;28;20475;-88
2021/12/14 00:36:27;;;;;;;18.00;8.77;;;;;;;;;;5017018;28;20453;-90
2021/12/14 00:38:57;;;;;;;19.13;8.23;;;;;;;;;;5018052;28;20449;-90
2021/12/14 00:41:27;;;;;;;19.03;7.40;;;5.30;99.90;;;;;;5017969;28;20456;-89
2021/12/14 00:43:56;;;;;;;16.67;7.67;;;5.30;99.90;;;;;;5017911;28;20810;-89
2021/12/14 00:46:25;;;;;;;14.50;8.20;;;5.30;99.90;;;;;;5017829;28;20440;-90
2021/12/14 00:48:52;;;;;;;17.90;7.60;;;;;;;;;;5013894;28;20452;-90
2021/12/14 00:51:26;;;;;;;21.70;7.60;;;5.30;99.90;;;;;;5016870;28;20830;-91
2021/12/14 00:53:53;;;;;;;13.47;6.50;;;;;;;;;;5014885;28;20515;-90
2021/12/14 00:56:21;;;;;;;13.33;6.57;;;;;;;;;;5018203;28;20453;-89
2021/12/14 00:58:48;;;;;;;19.80;8.47;;;5.20;99.90;;;;;;5018562;28;20451;-89
2021/12/14 01:01:19;;;;;;;11.47;6.40;;;5.20;99.90;;;;;;5019249;28;20441;-90
2021/12/14 01:03:49;;;;;;;23.03;7.57;;;5.20;99.90;;;;;;5024556;28;20456;-90
2021/12/14 01:06:17;;;;;;;14.90;6.80;;;5.20;99.90;;;;;;5040922;28;20458;-89
2021/12/14 01:08:46;;;;;;;20.60;7.70;;;5.30;99.90;;;;;;5019439;28;20437;-88
2021/12/14 01:11:19;;;;;;;32.47;8.73;;;5.30;99.90;;;;;;5016884;28;20483;-89
2021/12/14 01:13:55;;;;;;;21.33;7.50;;;5.20;99.90;;;;;;5012586;28;20854;-89
2021/12/14 01:19:16;;;;;;;26.63;8.20;;;5.40;99.90;;;;;;5016084;28;20444;-88
2021/12/14 01:22:10;;;;;;;19.10;7.90;;;5.20;99.90;;;;;;5013380;28;20539;-89
2021/12/14 01:25:00;;;;;;;15.87;8.27;;;5.30;99.90;;;;;;5016335;28;21146;-89
2021/12/14 01:27:34;;;;;;;13.77;7.33;;;5.20;99.90;;;;;;5016915;28;20948;-90
2021/12/14 01:30:05;;;;;;;24.40;8.17;;;5.20;99.90;;;;;;5016628;28;20499;-89
2021/12/14 01:32:38;;;;;;;18.87;8.30;;;5.30;99.90;;;;;;5013274;28;20528;-89
2021/12/14 01:35:13;;;;;;;13.80;7.83;;;5.40;99.90;;;;;;5016421;28;20496;-89
2021/12/14 01:37:46;;;;;;;13.43;7.07;;;5.00;99.90;;;;;;5015726;28;20510;-89
2021/12/14 01:40:45;;;;;;;16.03;8.00;;;5.30;99.90;;;;;;5016450;28;20454;-89
2021/12/14 01:43:07;;;;;;;18.73;8.10;;;;;;;;;;5016188;28;20532;-91
2021/12/14 01:45:34;;;;;;;18.53;7.93;;;;;;;;;;5013767;28;20847;-91
2021/12/14 01:48:03;;;;;;;17.50;7.90;;;5.40;99.90;;;;;;5013461;28;20468;-90
2021/12/14 01:50:34;;;;;;;16.63;7.53;;;5.30;99.90;;;;;;5016193;28;20441;-88
2021/12/14 01:53:03;;;;;;;12.03;6.67;;;5.30;99.90;;;;;;5011910;28;20457;-89
2021/12/14 01:55:33;;;;;;;9.90;5.70;;;5.20;99.90;;;;;;5016153;28;20488;-90
2021/12/14 01:58:04;;;;;;;13.13;6.40;;;5.20;99.90;;;;;;5016115;28;20453;-91
2021/12/14 02:00:36;;;;;;;12.43;6.93;;;4.70;99.90;;;;;;5012696;28;20460;-90
2021/12/14 02:03:07;;;;;;;14.77;7.10;;;5.20;99.90;;;;;;5016074;28;20453;-90
2021/12/14 02:05:36;;;;;;;21.80;8.20;;;5.20;99.90;;;;;;5015465;28;20464;-90
2021/12/14 02:08:15;;;;;;;18.53;9.03;;;5.20;99.90;;;;;;5016002;28;20456;-90
2021/12/14 02:10:43;;;;;;;18.73;7.53;;;5.30;99.90;;;;;;5016225;28;20480;-90
2021/12/14 02:13:10;;;;;;;23.93;9.07;;;;;;;;;;5015601;28;20812;-91
2021/12/14 02:15:41;;;;;;;20.20;8.03;;;5.40;99.90;;;;;;5015559;28;20503;-88
2021/12/14 02:18:15;;;;;;;18.20;7.90;;;5.30;99.90;;;;;;5012454;28;20476;-90
2021/12/14 02:20:47;;;;;;;14.40;7.23;;;5.30;99.90;;;;;;5014714;28;20484;-88
2021/12/14 02:23:14;;;;;;;18.50;7.87;;;;;;;;;;5012638;28;20449;-89
2021/12/14 02:25:41;;;;;;;25.53;9.17;;;;;;;;;;5011561;28;20441;-89
2021/12/14 02:28:11;;;;;;;19.90;7.53;;;5.30;99.90;;;;;;5015447;28;20452;-90
2021/12/14 02:30:42;;;;;;;26.10;9.30;;;5.30;99.90;;;;;;5015436;28;20460;-88
2021/12/14 02:33:18;;;;;;;15.07;7.87;;;5.40;99.90;;;;;;5015065;28;20456;-89
2021/12/14 02:35:47;;;;;;;18.47;7.57;;;5.10;99.90;;;;;;5011073;28;20984;-88
2021/12/14 02:38:17;;;;;;;13.20;8.50;;;;;;;;;;5015495;28;20453;-89
2021/12/14 02:40:57;;;;;;;21.50;7.00;;;5.30;99.90;;;;;;5015245;28;20467;-90
2021/12/14 02:43:27;;;;;;;16.20;7.80;;;5.40;99.90;;;;;;5015277;28;20940;-91
2021/12/14 02:46:03;;;;;;;14.57;8.70;;;5.20;99.90;;;;;;5015187;28;20916;-90
2021/12/14 02:48:31;;;;;;;14.27;7.57;;;5.10;99.90;;;;;;5014390;28;20449;-89
2021/12/14 02:51:06;;;;;;;14.70;5.90;;;5.30;99.90;;;;;;5014187;28;20459;-89
2021/12/14 02:53:33;;;;;;;16.63;5.50;;;5.70;99.90;;;;;;5015129;28;20459;-89
2021/12/14 02:56:00;;;;;;;18.57;7.10;;;;;;;;;;5015187;28;20484;-87
2021/12/14 02:58:28;;;;;;;17.40;6.40;;;;;;;;;;5016015;28;20468;-89
2021/12/14 03:00:58;;;;;;;14.97;6.63;;;;;;;;;;5017418;28;20453;-89
2021/12/14 03:03:26;;;;;;;22.50;7.10;;;5.10;99.90;;;;;;5017248;28;20459;-88
2021/12/14 03:05:54;;;;;;;15.90;8.00;;;;;;;;;;5018003;28;20492;-89
2021/12/14 03:08:25;;;;;;;25.20;6.93;;;5.10;99.90;;;;;;5020732;28;20464;-91
2021/12/14 03:10:59;;;;;;;12.10;5.90;;;5.00;99.90;;;;;;5018436;28;20544;-91
2021/12/14 03:13:30;;;;;;;14.73;5.53;;;4.80;99.90;;;;;;5016877;28;20558;-90
2021/12/14 03:16:00;;;;;;;13.53;6.30;;;5.00;99.90;;;;;;5011032;28;20498;-89
2021/12/14 03:18:30;;;;;;;13.47;6.47;;;5.20;99.90;;;;;;5014881;28;20459;-90
2021/12/14 03:20:59;;;;;;;23.77;6.13;;;4.90;99.90;;;;;;5013834;28;20455;-90
2021/12/14 03:23:30;;;;;;;18.50;7.50;;;4.90;99.90;;;;;;5014739;28;20462;-90
2021/12/14 03:26:00;;;;;;;18.43;6.50;;;4.90;99.90;;;;;;5011131;28;20455;-90
2021/12/14 03:28:30;;;;;;;13.93;6.40;;;4.90;99.90;;;;;;5014746;28;20455;-90
2021/12/14 03:31:04;;;;;;;11.43;5.27;;;4.80;99.90;;;;;;5013279;28;20484;-90
2021/12/14 03:33:35;;;;;;;11.47;5.43;;;4.90;99.90;;;;;;5014625;28;20445;-89
2021/12/14 03:36:06;;;;;;;11.50;5.13;;;4.90;99.90;;;;;;5013232;28;20878;-89
2021/12/14 03:38:39;;;;;;;10.30;5.43;;;4.80;99.90;;;;;;5014423;28;20453;-91
2021/12/14 03:41:10;;;;;;;10.43;4.50;;;4.70;99.90;;;;;;5010611;28;20456;-91
2021/12/14 03:43:39;;;;;;;11.07;5.07;;;4.60;99.90;;;;;;5027993;28;20447;-89
2021/12/14 03:46:06;;;;;;;8.07;5.17;;;4.60;99.90;;;;;;5039081;28;20448;-89
2021/12/14 03:48:34;;;;;;;13.13;6.60;;;4.60;99.90;;;;;;5015116;28;20441;-89
2021/12/14 03:51:03;;;;;;;9.87;5.40;;;4.60;99.90;;;;;;5010416;28;20864;-89
2021/12/14 03:53:30;;;;;;;13.47;5.60;;;4.80;99.90;;;;;;5013939;28;20464;-89
2021/12/14 03:56:04;;;;;;;14.43;5.50;;;4.90;99.90;;;;;;5013740;28;20497;-90
2021/12/14 03:58:35;;;;;;;11.50;5.23;;;4.70;99.90;;;;;;5013821;28;20457;-89
2021/12/14 04:01:07;;;;;;;7.17;4.80;;;4.60;99.90;;;;;;5008097;28;20453;-88
2021/12/14 04:03:35;;;;;;;8.00;4.07;;;;;;;;;;5010509;28;20457;-90
2021/12/14 04:06:09;;;;;;;7.67;4.40;;;4.50;99.90;;;;;;5008836;28;20437;-89
2021/12/14 04:08:37;;;;;;;4.40;2.53;;;4.40;99.90;;;;;;5013539;28;20448;-90
2021/12/14 04:11:07;;;;;;;3.93;2.80;;;4.20;99.90;;;;;;5013612;28;20469;-89
2021/12/14 04:13:38;;;;;;;6.17;3.13;;;4.10;99.90;;;;;;5013502;28;20457;-90
2021/12/14 04:16:07;;;;;;;6.60;3.43;;;3.90;99.90;;;;;;5010884;28;20495;-89
2021/12/14 04:18:34;;;;;;;6.40;4.07;;;;;;;;;;5010603;28;20445;-89
2021/12/14 04:21:01;;;;;;;8.53;3.70;;;4.10;99.90;;;;;;5012440;28;20477;-89
2021/12/14 04:23:31;;;;;;;7.37;3.67;;;4.00;99.90;;;;;;5013723;28;20449;-88
2021/12/14 04:26:01;;;;;;;9.30;3.97;;;4.00;99.90;;;;;;5013657;28;20457;-90
2021/12/14 04:28:34;;;;;;;10.80;3.30;;;4.20;99.90;;;;;;5013472;28;20471;-90
2021/12/14 04:31:01;;;;;;;6.87;3.60;;;;;;;;;;5013439;28;20952;-90
2021/12/14 04:33:30;;;;;;;12.93;3.90;;;3.80;99.90;;;;;;5010702;28;20987;-89
2021/12/14 04:35:58;;;;;;;10.13;4.00;;;;;;;;;;5012398;28;20689;-89
2021/12/14 04:38:27;;;;;;;6.43;3.50;;;3.90;99.90;;;;;;5010876;28;20516;-89
2021/12/14 04:52:06;;;;;;;7.90;3.40;;;3.60;99.90;;;;;;5012276;28;20428;-89
2021/12/14 04:54:39;;;;;;;5.50;3.60;;;3.80;99.90;;;;;;5012862;28;20453;-88
2021/12/14 04:57:16;;;;;;;6.67;3.70;;;3.80;99.90;;;;;;5013171;28;20989;-88
2021/12/14 04:59:44;;;;;;;5.00;2.63;;;4.00;99.90;;;;;;5012179;28;20455;-88
2021/12/14 05:02:17;;;;;;;5.80;3.50;;;4.30;99.90;;;;;;5013311;28;20457;-89
2021/12/14 05:04:45;;;;;;;5.13;3.20;;;;;;;;;;5010206;28;20504;-90
2021/12/14 05:07:45;;;;;;;6.67;4.00;;;;;;;;;;5012340;28;20460;-89
2021/12/14 05:10:17;;;;;;;5.53;3.30;;;3.80;99.90;;;;;;5013196;28;20558;-90
2021/12/14 05:12:44;;;;;;;7.10;3.73;;;;;;;;;;5015915;28;20441;-89
2021/12/14 05:15:15;;;;;;;4.70;3.13;;;3.90;99.90;;;;;;5016857;28;20500;-89
2021/12/14 05:17:43;;;;;;;5.63;3.47;;;3.80;99.90;;;;;;5016960;28;20789;-89
2021/12/14 05:20:13;;;;;;;5.60;3.50;;;3.70;99.90;;;;;;5016621;28;20459;-88
2021/12/14 05:22:44;;;;;;;17.70;2.80;;;3.60;99.90;;;;;;5012636;28;20952;-88
2021/12/14 05:25:15;;;;;;;14.90;3.60;;;3.60;99.90;;;;;;5013172;28;20547;-89
2021/12/14 05:27:45;;;;;;;4.10;2.20;;;3.50;99.90;;;;;;5014311;28;20451;-88
2021/12/14 05:30:17;;;;;;;6.80;2.97;;;3.40;99.90;;;;;;5014328;28;20877;-89
2021/12/14 05:32:45;;;;;;;7.53;2.73;;;3.40;99.90;;;;;;5017142;28;20463;-91
2021/12/14 05:35:15;;;;;;;8.03;3.30;;;3.40;99.90;;;;;;5017872;28;20492;-88
2021/12/14 05:37:47;;;;;;;5.60;3.43;;;;;;;;;;5013293;28;20452;-88
2021/12/14 05:40:24;;;;;;;9.23;4.43;;;3.60;99.90;;;;;;5018292;28;20457;-91
2021/12/14 05:43:06;;;;;;;5.53;2.83;;;;;;;;;;5017969;28;20448;-89
2021/12/14 05:45:37;;;;;;;4.83;3.10;;;3.60;99.90;;;;;;5016645;28;20524;-90
2021/12/14 05:48:05;;;;;;;5.90;3.50;;;;;;;;;;5012595;28;20445;-89
2021/12/14 05:50:36;;;;;;;5.90;3.00;;;3.60;99.90;;;;;;5016774;28;20448;-88
2021/12/14 05:53:04;;;;;;;5.50;3.17;;;;;;;;;;5012658;28;20959;-89
2021/12/14 05:55:34;;;;;;;4.10;2.67;;;3.60;99.90;;;;;;5014094;28;20476;-90
2021/12/14 05:58:03;;;;;;;7.63;4.73;;;3.60;99.90;;;;;;5013558;28;20441;-90
2021/12/14 06:00:32;;;;;;;4.90;3.07;;;4.20;99.90;;;;;;5017068;28;20453;-94
2021/12/14 06:03:01;;;;;;;3.03;2.13;;;3.60;99.90;;;;;;5017004;28;20804;-90
2021/12/14 06:05:30;;;;;;;6.60;3.27;;;3.40;99.90;;;;;;5013802;28;20461;-90
2021/12/14 06:07:58;;;;;;;6.10;3.37;;;;;;;;;;5017757;28;20464;-89
2021/12/14 06:10:26;;;;;;;4.70;3.60;;;3.40;99.90;;;;;;5017823;28;20820;-89
2021/12/14 06:12:53;;;;;;;8.30;4.17;;;;;;;;;;5019632;28;20449;-90
2021/12/14 06:15:27;;;;;;;6.90;3.93;;;3.50;99.90;;;;;;5015730;28;20868;-88
2021/12/14 06:17:54;;;;;;;6.83;3.90;;;;;;;;;;5018729;28;20496;-88
2021/12/14 06:20:26;;;;;;;6.33;3.83;;;3.50;99.90;;;;;;5014065;28;20449;-90
2021/12/14 06:22:54;;;;;;;5.07;2.90;;;3.50;99.90;;;;;;5034091;28;20440;-88
2021/12/14 06:25:25;;;;;;;5.10;3.90;;;3.40;99.90;;;;;;5035754;28;20457;-88
2021/12/14 06:27:53;;;;;;;6.13;4.10;;;3.50;99.90;;;;;;5012443;28;20460;-88
2021/12/14 06:30:24;;;;;;;2.57;1.57;;;3.40;99.90;;;;;;5009459;28;20445;-89
2021/12/14 06:32:54;;;;;;;6.43;4.23;;;3.40;99.90;;;;;;5016602;28;20924;-89
2021/12/14 06:35:24;;;;;;;6.20;4.30;;;3.40;99.90;;;;;;5016060;28;20496;-88
2021/12/14 06:38:28;;;;;;;4.57;2.67;;;3.40;99.90;;;;;;5015523;28;20455;-89
2021/12/14 06:41:10;;;;;;;6.07;3.97;;;3.40;99.90;;;;;;5016184;28;20444;-90
2021/12/14 06:43:40;;;;;;;6.60;4.93;;;3.40;99.90;;;;;;5013405;28;20456;-91
2021/12/14 06:46:11;;;;;;;8.83;5.00;;;3.40;99.90;;;;;;5016199;28;20445;-91
2021/12/14 06:48:42;;;;;;;7.80;4.43;;;3.40;99.90;;;;;;5015923;28;20508;-89
2021/12/14 06:51:15;;;;;;;7.27;5.50;;;3.40;99.90;;;;;;5014692;28;20448;-88
2021/12/14 06:53:45;;;;;;;8.13;5.17;;;3.40;99.90;;;;;;5011562;28;20445;-89
2021/12/14 06:56:14;;;;;;;8.17;5.60;;;3.50;99.90;;;;;;5012783;28;20495;-89
2021/12/14 06:58:49;;;;;;;7.80;5.23;;;3.50;99.90;;;;;;5015194;28;20452;-90
2021/12/14 07:01:20;;;;;;;9.83;5.70;;;3.50;99.90;;;;;;5015589;28;20456;-91
2021/12/14 07:03:50;;;;;;;10.37;6.43;;;3.60;99.90;;;;;;5010611;28;20510;-90
2021/12/14 07:06:26;;;;;;;12.70;6.67;;;3.70;99.90;;;;;;5011371;28;20476;-90
2021/12/14 07:08:55;;;;;;;8.87;5.30;;;3.70;99.90;;;;;;5014851;28;20469;-91
2021/12/14 07:11:25;;;;;;;8.03;4.80;;;3.60;99.90;;;;;;5015399;28;20440;-90
2021/12/14 07:13:53;;;;;;;7.40;5.33;;;3.70;99.90;;;;;;5015543;28;20440;-93
2021/12/14 07:16:24;;;;;;;7.40;4.90;;;3.70;99.90;;;;;;5012644;28;20489;-92
2021/12/14 07:18:53;;;;;;;7.20;5.40;;;3.60;99.90;;;;;;5015672;28;20449;-93
2021/12/14 07:21:39;;;;;;;6.53;4.50;;;3.60;99.90;;;;;;5015035;28;20457;-92
2021/12/14 07:24:30;;;;;;;8.87;5.57;;;3.60;99.90;;;;;;5015425;28;20444;-92
2021/12/14 07:27:17;;;;;;;8.27;5.27;;;3.70;99.90;;;;;;5015140;28;20525;-91
2021/12/14 07:29:44;;;;;;;9.67;4.77;;;;;;;;;;5011392;28;20472;-93
2021/12/14 07:32:11;;;;;;;7.83;5.37;;;;;;;;;;5011906;28;20527;-91
2021/12/14 07:34:40;;;;;;;6.40;4.57;;;;;;;;;;5011242;28;20551;-89
2021/12/14 07:37:08;;;;;;;8.93;5.10;;;;;;;;;;5013778;28;20492;-91
2021/12/14 07:39:36;;;;;;;5.80;4.90;;;;;;;;;;5011014;28;20448;-90
2021/12/14 07:42:03;;;;;;;6.80;4.90;;;;;;;;;;5014797;28;20457;-90
2021/12/14 07:44:33;;;;;;;6.77;4.63;;;3.80;99.90;;;;;;5015237;28;20488;-92
2021/12/14 07:47:04;;;;;;;6.53;4.80;;;3.70;99.90;;;;;;4954300;29;20463;-90
2021/12/14 07:49:33;;;;;;;6.40;4.53;;;3.80;99.90;;;;;;4955409;29;20456;-94
2021/12/14 07:52:03;;;;;;;9.30;5.53;;;3.80;99.90;;;;;;4955393;29;20515;-91
2021/12/14 07:54:36;;;;;;;5.23;4.30;;;3.90;99.90;;;;;;4954666;29;20490;-91
2021/12/14 07:57:07;;;;;;;6.73;5.20;;;4.00;99.90;;;;;;4954381;29;20585;-90
2021/12/14 07:59:35;;;;;;;8.00;5.43;;;;;;;;;;4951806;29;20447;-90
2021/12/14 08:02:11;;;;;;;6.07;4.80;;;4.00;99.90;;;;;;4952132;29;20962;-91
2021/12/14 08:04:40;;;;;;;8.37;4.70;;;4.00;99.90;;;;;;4971537;28;20461;-90
2021/12/14 08:07:08;;;;;;;7.53;5.00;;;;;;;;;;5011319;28;20452;-89
2021/12/14 08:09:46;;;;;;;9.57;5.57;;;3.90;99.90;;;;;;5014639;28;20472;-92
2021/12/14 08:12:32;;;;;;;6.47;5.40;;;4.00;99.90;;;;;;5012883;28;20452;-92
2021/12/14 08:15:11;;;;;;;6.33;5.03;;;4.00;99.90;;;;;;5014949;28;20899;-91
2021/12/14 08:17:38;;;;;;;8.30;4.93;;;;;;;;;;5014906;28;20480;-92
2021/12/14 08:20:07;;;;;;;5.53;4.63;;;4.10;99.90;;;;;;5014962;28;21015;-90
2021/12/14 08:22:37;;;;;;;7.37;5.03;;;4.10;99.90;;;;;;5011041;28;20448;-90
2021/12/14 08:25:09;;;;;;;16.43;5.10;;;4.20;99.90;;;;;;5009051;28;20457;-92
2021/12/14 08:27:37;;;;;;;8.73;5.37;;;;;;;;;;5010941;28;20429;-91
2021/12/14 08:30:07;;;;;;;13.90;5.73;;;4.20;99.90;;;;;;5012553;28;20514;-92
2021/12/14 08:32:37;;;;;;;8.80;5.83;;;4.30;99.90;;;;;;5015393;28;20434;-90
2021/12/14 08:35:08;;;;;;;7.77;5.03;;;4.40;99.90;;;;;;5012976;28;20477;-88
2021/12/14 08:37:39;;;;;;;5.37;4.70;;;4.50;99.90;;;;;;5012117;28;20488;-89
2021/12/14 08:40:14;;;;;;;5.63;4.13;;;4.60;99.90;;;;;;5013707;28;20526;-90
2021/12/14 08:42:49;;;;;;;4.37;3.50;;;4.80;99.90;;;;;;5009582;28;21000;-91
2021/12/14 08:45:27;;;;;;;4.83;3.70;;;5.00;99.90;;;;;;5013671;28;20484;-89
2021/12/14 08:47:58;;;;;;;5.13;3.77;;;5.20;99.90;;;;;;5016786;28;20448;-93
2021/12/14 08:50:27;;;;;;;4.20;3.60;;;5.40;99.90;;;;;;5030259;28;20448;-90
2021/12/14 08:52:54;;;;;;;6.80;4.60;;;6.00;99.90;;;;;;5022055;28;20779;-88
2021/12/14 08:55:24;;;;;;;6.13;3.70;;;6.70;99.90;;;;;;5020042;28;20460;-91
2021/12/14 08:57:52;;;;;;;3.73;3.30;;;7.60;99.90;;;;;;5025497;28;20484;-90
2021/12/14 09:00:25;;;;;;;3.63;3.07;;;7.50;99.90;;;;;;5038961;28;20442;-90
2021/12/14 09:02:54;;;;;;;4.60;2.77;;;;;;;;;;5037945;28;20451;-90
2021/12/14 09:05:26;;;;;;;3.40;2.60;;;6.60;99.90;;;;;;5021726;28;20476;-90
2021/12/14 09:07:55;;;;;;;2.83;2.60;;;;;;;;;;5021406;28;20477;-91
2021/12/14 09:10:27;;;;;;;2.60;2.30;;;7.00;99.90;;;;;;5020022;28;20863;-92
2021/12/14 09:12:59;;;;;;;2.87;2.33;;;7.20;99.90;;;;;;5019929;28;20437;-91
2021/12/14 09:15:29;;;;;;;3.10;2.77;;;7.50;99.90;;;;;;5020353;28;20451;-89
2021/12/14 09:17:58;;;;;;;2.63;2.33;;;8.00;99.90;;;;;;5021371;28;20488;-90
2021/12/14 09:20:30;;;;;;;3.73;2.70;;;8.00;99.90;;;;;;5023845;28;20453;-88
2021/12/14 09:23:02;;;;;;;2.77;2.57;;;7.90;99.90;;;;;;5019322;28;20441;-88
2021/12/14 09:25:31;;;;;;;3.00;2.57;;;8.60;99.90;;;;;;5021124;28;20481;-88
2021/12/14 09:28:01;;;;;;;2.60;2.10;;;8.40;99.90;;;;;;5028517;28;20950;-89
2021/12/14 09:30:33;;;;;;;2.60;2.30;;;8.30;99.90;;;;;;5034869;28;20447;-89
2021/12/14 09:33:00;;;;;;;4.83;2.27;;;;;;;;;;5022160;28;20441;-90
2021/12/14 09:35:31;;;;;;;2.20;2.00;;;8.10;99.90;;;;;;5020814;28;20498;-92
2021/12/14 09:37:59;;;;;;;3.40;2.30;;;8.00;99.90;;;;;;5020029;28;20840;-90
2021/12/14 09:40:29;;;;;;;3.07;2.77;;;8.10;99.90;;;;;;5014670;28;20475;-91
2021/12/14 09:42:59;;;;;;;2.90;2.30;;;8.20;99.90;;;;;;5023212;28;20940;-90
2021/12/14 09:45:34;;;;;;;3.40;2.80;;;8.50;99.90;;;;;;5018018;28;20448;-90
2021/12/14 09:48:01;;;;;;;7.07;2.37;;;;;;;;;;5012860;28;20488;-92
2021/12/14 09:50:31;;;;;;;2.93;2.60;;;9.10;99.90;;;;;;5016235;28;20465;-90
2021/12/14 09:53:01;;;;;;;3.80;2.47;;;8.70;99.90;;;;;;5018481;28;20457;-91
2021/12/14 09:55:33;;;;;;;2.53;2.10;;;8.70;99.90;;;;;;5014506;28;20449;-90
2021/12/14 09:58:06;;;;;;;4.10;2.30;;;8.60;99.90;;;;;;5014412;28;20485;-90
2021/12/14 10:00:35;;;;;;;6.33;1.93;;;8.60;99.90;;;;;;5031573;28;20440;-92
2021/12/14 10:03:05;;;;;;;2.47;2.23;;;8.30;99.90;;;;;;5038663;28;20448;-88
2021/12/14 10:05:35;;;;;;;1.93;1.50;;;8.40;99.90;;;;;;5036297;28;20857;-90
2021/12/14 10:08:13;;;;;;;3.90;2.07;;;7.70;99.90;;;;;;5032678;28;20518;-91
2021/12/14 10:10:41;;;;;;;3.03;2.20;;;;;;;;;;5036476;28;20451;-89
2021/12/14 10:13:09;;;;;;;2.50;2.03;;;8.50;99.90;;;;;;5035847;28;20463;-91
2021/12/14 10:15:39;;;;;;;1.63;1.50;;;8.30;99.90;;;;;;5036101;28;20480;-92
2021/12/14 10:18:09;;;;;;;2.50;1.97;;;8.10;99.90;;;;;;5030086;28;20998;-89
2021/12/14 10:20:41;;;;;;;2.90;1.73;;;8.00;99.90;;;;;;5030812;28;20449;-89
2021/12/14 10:23:09;;;;;;;3.00;1.87;;;7.90;99.90;;;;;;5016154;28;20460;-89
2021/12/14 10:25:36;;;;;;;2.83;2.40;;;;;;;;;;5017640;28;20449;-89
2021/12/14 10:28:04;;;;;;;2.57;1.73;;;7.30;99.90;;;;;;5015646;28;20543;-91
2021/12/14 10:30:37;;;;;;;4.13;1.90;;;7.30;99.90;;;;;;5016585;28;20452;-91
2021/12/14 10:33:05;;;;;;;2.77;1.67;;;;;;;;;;5020092;28;20440;-89
2021/12/14 10:35:40;;;;;;;1.63;1.53;;;7.60;99.90;;;;;;5036735;28;20570;-91
2021/12/14 10:38:18;;;;;;;2.50;1.83;;;7.80;99.90;;;;;;5033179;28;20494;-89
2021/12/14 10:43:34;;;;;;;2.70;1.70;;;8.00;99.90;;;;;;5016233;28;20480;-92
2021/12/14 10:46:08;;;;;;;2.70;1.73;;;8.10;99.90;;;;;;5018458;28;20471;-87
2021/12/14 10:48:38;;;;;;;3.20;1.70;;;8.20;99.90;;;;;;5035287;28;20454;-89
2021/12/14 10:51:18;;;;;;;3.50;1.80;;;8.10;99.90;;;;;;5035611;28;20459;-90
2021/12/14 10:53:47;;;;;;;1.77;1.67;;;8.20;99.90;;;;;;5034083;28;20459;-92
2021/12/14 10:56:22;;;;;;;2.50;1.70;;;8.50;99.90;;;;;;5032778;28;20527;-89
2021/12/14 10:58:52;;;;;;;1.70;1.50;;;8.50;99.90;;;;;;5033482;28;20451;-90
2021/12/14 11:01:31;;;;;;;1.63;1.50;;;8.80;99.90;;;;;;5031292;28;20864;-86
2021/12/14 11:04:02;;;;;;;3.83;2.10;;;8.90;99.90;;;;;;5016070;28;20883;-88
2021/12/14 11:06:34;;;;;;;2.13;1.93;;;8.80;99.90;;;;;;5015524;28;20448;-89
2021/12/14 11:11:52;;;;;;;3.17;2.40;;;8.70;99.90;;;;;;5033414;28;20502;-95
2021/12/14 11:14:21;;;;;;;2.23;2.00;;;8.90;99.90;;;;;;5034309;28;20451;-91
2021/12/14 11:19:50;;;;;;;5.93;3.07;;;9.70;99.90;;;;;;5034315;28;20811;-90
2021/12/14 11:22:21;;;;;;;3.83;3.43;;;10.00;99.90;;;;;;5034331;28;20801;-91
2021/12/14 11:24:54;;;;;;;3.77;3.30;;;10.20;99.90;;;;;;5031175;28;20513;-91
2021/12/14 11:27:24;;;;;;;4.37;3.60;;;10.60;99.90;;;;;;5029119;28;20451;-90
2021/12/14 11:29:55;;;;;;;5.10;3.43;;;10.80;99.90;;;;;;5032097;28;20971;-91
2021/12/14 11:32:25;;;;;;;4.10;3.70;;;;;;;;;;5034415;28;20530;-92
2021/12/14 11:34:52;;;;;;;3.57;3.27;;;;;;;;;;5034029;28;20492;-91
2021/12/14 11:37:32;;;;;;;4.87;3.80;;;11.20;99.90;;;;;;5026276;28;20492;-90
2021/12/14 11:39:59;;;;;;;6.00;4.00;;;;;;;;;;5057697;28;20431;-92
2021/12/14 11:42:28;;;;;;;9.67;5.03;;;11.40;99.90;;;;;;5048278;28;20444;-92
2021/12/14 11:44:58;;;;;;;8.37;5.50;;;11.60;99.90;;;;;;5034579;28;20467;-90
2021/12/14 11:47:46;;;;;;;4.00;3.60;;;11.30;99.90;;;;;;5033856;28;20452;-92
2021/12/14 11:50:18;;;;;;;5.50;3.77;;;11.80;99.90;;;;;;5031190;28;20458;-90
2021/12/14 11:52:53;;;;;;;4.60;3.60;;;11.20;99.90;;;;;;5034188;28;20448;-91
2021/12/14 11:55:29;;;;;;;4.70;3.90;;;11.30;99.90;;;;;;5031066;28;20566;-90
2021/12/14 11:58:17;;;;;;;5.70;3.87;;;11.90;99.90;;;;;;5034120;28;20487;-93
2021/12/14 12:00:47;;;;;;;8.20;4.50;;;10.70;99.90;;;;;;5034364;28;20498;-89
2021/12/14 12:03:42;;;;;;;5.50;4.00;;;11.40;99.90;;;;;;5031426;28;20443;-88
2021/12/14 12:06:32;;;;;;;5.30;3.83;;;11.50;99.90;;;;;;5031646;28;20479;-90
2021/12/14 12:11:50;;;;;;;6.60;4.10;;;;;;;;;;5044773;28;20527;-89
2021/12/14 12:14:23;;;;;;;6.20;4.10;;;11.10;99.90;;;;;;5038286;28;20471;-89
2021/12/14 12:16:51;;;;;;;4.57;3.83;;;10.60;99.90;;;;;;5032689;23;20497;-87
2021/12/14 12:19:22;;;;;;;9.93;4.20;;;10.60;99.90;;;;;;4992555;28;20522;-89
2021/12/14 12:21:52;;;;;;;10.60;4.80;;;10.40;99.90;;;;;;4994318;28;20449;-88
2021/12/14 12:24:43;;;;;;;5.73;5.07;;;10.10;99.90;;;;;;5002437;28;20450;-87
2021/12/14 12:27:28;;;;;;;5.47;3.53;;;10.10;99.90;;;;;;5000123;28;20541;-90
2021/12/14 12:30:39;;;;;;;7.50;3.90;;;10.10;99.90;;;;;;5004217;28;20456;-90
2021/12/14 12:33:17;;;;;;;4.50;4.10;;;10.40;99.90;;;;;;5005500;28;20808;-91
2021/12/14 12:35:50;;;;;;;5.17;4.40;;;10.40;99.90;;;;;;4999060;28;20448;-91
2021/12/14 12:38:32;;;;;;;7.00;4.10;;;10.00;99.90;;;;;;4994661;28;20553;-90
2021/12/14 12:41:06;;;;;;;6.93;4.30;;;10.20;99.90;;;;;;4998835;28;20433;-89
2021/12/14 12:43:36;;;;;;;5.70;4.03;;;10.20;99.90;;;;;;4996010;28;20458;-88
2021/12/14 12:46:10;;;;;;;5.47;4.53;;;10.30;99.90;;;;;;5001438;28;20485;-93
2021/12/14 12:48:47;;;;;;;5.53;4.93;;;10.50;99.90;;;;;;4998796;28;20454;-89
2021/12/14 12:51:48;;;;;;;5.20;4.10;;;10.50;99.90;;;;;;4996930;28;20478;-90
2021/12/14 12:54:22;;;;;;;9.93;4.10;;;10.60;99.90;;;;;;4997802;28;20830;-90
2021/12/14 12:57:06;;;;;;;4.63;3.93;;;10.70;99.90;;;;;;4997836;28;20449;-91
2021/12/14 12:59:41;;;;;;;6.93;4.23;;;10.70;99.90;;;;;;4998893;28;20461;-87
2021/12/14 13:02:22;;;;;;;7.70;4.80;;;10.50;99.90;;;;;;4997910;28;20552;-90
2021/12/14 13:04:52;;;;;;;7.40;5.17;;;10.60;99.90;;;;;;4997713;28;20812;-88
2021/12/14 13:07:28;;;;;;;6.07;4.70;;;10.50;99.90;;;;;;4997796;28;20458;-88
2021/12/14 13:10:13;;;;;;;7.17;5.00;;;10.20;99.90;;;;;;4999091;28;20453;-87
2021/12/14 13:12:55;;;;;;;9.70;5.93;;;9.70;99.90;;;;;;4998958;28;20490;-90
2021/12/14 13:15:48;;;;;;;7.67;5.13;;;9.60;99.90;;;;;;4999270;28;20449;-91
2021/12/14 13:18:38;;;;;;;8.30;4.77;;;10.00;99.90;;;;;;4984281;28;21023;-88
2021/12/14 13:21:15;;;;;;;5.40;4.70;;;10.10;99.90;;;;;;5000002;28;20426;-93
2021/12/14 13:23:46;;;;;;;10.93;6.23;;;9.90;99.90;;;;;;4995715;28;20486;-91
2021/12/14 13:26:40;;;;;;;11.23;6.50;;;9.50;99.90;;;;;;4993422;28;20449;-88
2021/12/14 13:29:31;;;;;;;7.40;5.20;;;9.60;99.90;;;;;;4997976;28;20534;-88
2021/12/14 13:32:00;;;;;;;10.23;6.13;;;9.30;99.90;;;;;;4997213;28;20457;-89
2021/12/14 13:34:32;;;;;;;11.13;5.50;;;9.50;99.90;;;;;;4997410;28;20457;-89
2021/12/14 13:37:00;;;;;;;6.77;6.07;;;9.70;99.90;;;;;;4999173;28;20453;-90
2021/12/14 13:39:28;;;;;;;7.97;6.63;;;;;;;;;;4999367;28;20442;-89
2021/12/14 13:42:30;;;;;;;15.67;6.57;;;9.00;99.90;;;;;;4998755;28;20449;-90
2021/12/14 13:44:58;;;;;;;9.70;7.10;;;9.20;99.90;;;;;;4998042;28;20449;-88
2021/12/14 13:47:28;;;;;;;11.10;6.90;;;9.20;99.90;;;;;;4995164;28;20495;-89
2021/12/14 13:49:56;;;;;;;9.23;7.80;;;9.10;99.90;;;;;;4998366;28;20457;-90
2021/12/14 13:55:17;;;;;;;7.87;6.53;;;8.90;99.90;;;;;;5003336;28;21002;-89
2021/12/14 13:57:49;;;;;;;9.00;7.07;;;9.00;99.90;;;;;;4997715;28;20493;-88
2021/12/14 14:00:20;;;;;;;14.83;8.23;;;8.60;99.90;;;;;;4998560;28;20450;-90
2021/12/14 14:02:50;;;;;;;13.73;7.47;;;8.50;99.90;;;;;;4994201;28;20464;-87
2021/12/14 14:05:19;;;;;;;8.47;7.17;;;8.60;99.90;;;;;;4991541;28;20450;-91